Time;durP1;ratioP1;P1;durP2;ratioP2;P2;SDS_P1;SDS_P2;PMS_P1;PMS_P2;Temp;Humidity;BMP_temperature;BMP_pressure;BME280_temperature;BME280_humidity;BME280_pressure;Samples;Min_cycle;Max_cycle;Signal;HPM_P1;HPM_P2
2022/01/26 00:07:55;;;;;;;6.32;2.08;;;;;;;23.09;37.36;101412.75;4997119;28;20471;-53
2022/01/26 00:10:21;;;;;;;10.63;2.60;;;;;;;23.15;37.26;101411.16;4995987;28;20137;-51
2022/01/26 00:12:47;;;;;;;11.57;2.40;;;;;;;23.14;37.12;101401.25;4992668;28;20019;-52
2022/01/26 00:15:14;;;;;;;4.15;2.03;;;;;;;23.15;37.20;101402.97;4993970;28;20081;-50
2022/01/26 00:17:40;;;;;;;5.60;1.88;;;;;;;23.15;37.08;101406.59;4992853;28;20038;-53
2022/01/26 00:20:25;;;;;;;4.32;2.08;;;;;;;23.13;37.12;101407.78;4994947;28;20424;-51
2022/01/26 00:27:57;;;;;;;4.43;1.67;;;;;;;23.00;37.38;101408.38;4995975;28;20036;-53
2022/01/26 00:41:05;;;;;;;3.47;1.67;;;;;;;22.84;37.13;101425.75;4996123;28;20500;-52
2022/01/26 00:43:32;;;;;;;4.22;2.25;;;;;;;22.83;37.01;101422.16;4994642;28;20022;-52
2022/01/26 00:46:00;;;;;;;3.90;1.83;;;;;;;22.80;37.19;101425.25;4993894;28;20062;-52
2022/01/26 00:48:27;;;;;;;4.00;1.77;;;;;;;22.81;37.53;101434.28;4990395;28;20042;-51
2022/01/26 00:50:54;;;;;;;2.95;1.98;;;;;;;22.80;37.30;101433.44;4995266;28;20030;-51
2022/01/26 00:53:24;;;;;;;2.45;1.48;;;;;;;22.79;37.33;101434.47;4993477;28;20038;-51
2022/01/26 00:55:50;;;;;;;3.15;1.75;;;;;;;22.74;37.41;101428.72;5009840;28;20026;-50
2022/01/26 00:58:17;;;;;;;3.70;1.52;;;;;;;22.73;37.45;101437.09;4993118;28;20085;-52
2022/01/26 01:00:43;;;;;;;3.05;1.48;;;;;;;22.73;37.36;101440.66;4994540;28;20042;-52
2022/01/26 01:03:09;;;;;;;4.10;1.33;;;;;;;22.69;37.27;101439.31;4994968;28;20034;-51
2022/01/26 01:05:42;;;;;;;3.50;1.23;;;;;;;22.70;37.33;101443.72;4993177;28;20404;-53
2022/01/26 01:08:14;;;;;;;3.20;1.73;;;;;;;22.69;37.44;101444.78;4994950;28;20029;-52
2022/01/26 01:10:40;;;;;;;3.00;1.63;;;;;;;22.68;37.35;101440.34;4992111;28;20030;-52
2022/01/26 01:13:14;;;;;;;2.55;1.70;;;;;;;22.65;37.38;101449.75;4993611;28;20430;-51
2022/01/26 01:15:40;;;;;;;1.95;1.27;;;;;;;22.60;37.38;101437.66;4992185;28;20034;-53
2022/01/26 01:18:13;;;;;;;4.47;1.73;;;;;;;22.65;37.28;101446.16;4994650;28;20441;-51
2022/01/26 01:28:32;;;;;;;4.53;1.67;;;;;;;22.54;37.40;101437.34;4991806;28;20424;-53
2022/01/26 01:31:08;;;;;;;5.20;1.67;;;;;;;22.54;37.41;101439.25;4992060;28;20031;-52
2022/01/26 01:33:39;;;;;;;4.22;1.50;;;;;;;22.56;37.50;101445.34;4991681;28;20033;-52
2022/01/26 01:36:06;;;;;;;6.35;1.55;;;;;;;22.56;37.51;101444.53;4987836;28;20353;-52
2022/01/26 01:38:34;;;;;;;3.25;2.05;;;;;;;22.56;37.47;101444.53;4989111;28;20084;-52
2022/01/26 01:41:00;;;;;;;4.53;1.60;;;;;;;22.53;37.29;101443.84;4992994;28;20080;-52
2022/01/26 01:43:26;;;;;;;4.93;2.28;;;;;;;22.50;37.20;101446.06;4992608;28;20022;-50
2022/01/26 01:45:55;;;;;;;3.58;1.60;;;;;;;22.52;37.22;101458.53;4989446;28;20026;-50
2022/01/26 01:48:26;;;;;;;2.38;1.50;;;;;;;22.50;37.07;101457.84;4991675;28;20029;-53
2022/01/26 01:50:54;;;;;;;6.50;1.73;;;;;;;22.46;37.10;101456.53;4992420;28;20030;-49
2022/01/26 01:53:29;;;;;;;3.78;2.10;;;;;;;22.49;36.98;101474.41;4989161;28;20938;-50
2022/01/26 01:55:55;;;;;;;4.97;2.10;;;;;;;22.45;36.91;101465.72;4991816;28;20041;-52
2022/01/26 01:58:22;;;;;;;3.15;2.47;;;;;;;22.45;36.98;101473.03;4992707;28;20033;-48
2022/01/26 02:00:48;;;;;;;5.03;2.58;;;;;;;22.45;36.82;101475.75;4994223;28;20109;-52
2022/01/26 02:03:14;;;;;;;4.65;3.00;;;;;;;22.46;36.92;101480.19;4991881;28;20030;-51
2022/01/26 02:05:40;;;;;;;5.18;2.65;;;;;;;22.45;36.94;101490.25;4993673;28;20055;-51
2022/01/26 02:08:06;;;;;;;4.82;2.35;;;;;;;22.42;36.86;101493.34;4991621;28;20392;-53
2022/01/26 02:10:34;;;;;;;5.20;2.30;;;;;;;22.40;36.99;101494.53;4991884;28;20037;-49
2022/01/26 02:13:03;;;;;;;3.72;2.13;;;;;;;22.37;36.82;101490.28;4991421;28;20092;-53
2022/01/26 02:15:56;;;;;;;10.45;3.10;;;;;;;22.38;36.94;101498.28;4988163;28;20034;-53
2022/01/26 02:21:13;;;;;;;4.97;2.97;;;;;;;22.35;36.77;101498.63;4990494;28;20030;-51
2022/01/26 02:53:46;;;;;;;4.35;2.13;;;;;;;22.12;36.49;101514.88;4991976;28;20048;-51
2022/01/26 02:56:24;;;;;;;3.95;1.80;;;;;;;22.12;36.59;101514.88;4992593;28;20091;-49
2022/01/26 03:04:45;;;;;;;4.53;2.30;;;;;;;22.07;36.64;101532.78;4953392;28;20283;-50
2022/01/26 03:07:22;;;;;;;4.18;2.00;;;;;;;22.07;36.49;101532.78;4986501;28;20488;-50
2022/01/26 03:10:00;;;;;;;3.53;1.95;;;;;;;22.04;36.58;101532.09;4991844;28;20128;-49
2022/01/26 03:12:35;;;;;;;2.20;1.80;;;;;;;22.03;36.56;101535.00;4993652;28;20030;-51
2022/01/26 03:15:11;;;;;;;4.10;1.55;;;;;;;22.04;36.48;101539.44;4990980;28;20141;-50
2022/01/26 03:18:01;;;;;;;2.28;1.92;;;;;;;22.00;36.17;101543.56;4993375;28;20084;-49
2022/01/26 03:20:28;;;;;;;3.33;1.75;;;;;;;21.99;36.41;101552.75;4992973;28;20065;-52
2022/01/26 03:28:37;;;;;;;4.78;2.00;;;;;;;21.91;36.58;101545.44;4991558;28;20038;-49
2022/01/26 03:36:29;;;;;;;4.15;2.20;;;;;;;21.89;36.41;101552.94;4994320;28;20045;-49
2022/01/26 03:39:00;;;;;;;4.63;2.17;;;;;;;21.85;36.41;101548.84;4995612;28;20441;-50
2022/01/26 03:41:43;;;;;;;5.40;2.70;;;;;;;21.87;36.25;101544.94;4994685;28;20034;-52
2022/01/26 03:44:10;;;;;;;4.47;2.63;;;;;;;21.83;36.16;101538.09;4996315;28;20546;-51
2022/01/26 03:46:36;;;;;;;4.85;2.63;;;;;;;21.83;36.25;101548.16;4993322;28;20030;-51
2022/01/26 03:49:03;;;;;;;7.53;2.45;;;;;;;21.83;36.21;101549.00;4995586;28;20109;-52
2022/01/26 03:51:29;;;;;;;3.47;2.40;;;;;;;21.81;36.17;101552.94;5009195;28;20416;-53
2022/01/26 03:53:55;;;;;;;5.18;3.03;;;;;;;21.80;36.18;101549.38;4995972;28;20034;-52
2022/01/26 03:56:22;;;;;;;4.85;2.38;;;;;;;21.78;36.28;101556.84;4993198;28;20046;-52
2022/01/26 03:58:48;;;;;;;4.50;2.20;;;;;;;21.77;36.32;101546.97;4995624;28;20030;-51
2022/01/26 04:01:14;;;;;;;4.03;2.38;;;;;;;21.79;36.25;101558.56;5010586;28;20042;-51
2022/01/26 04:03:40;;;;;;;4.93;2.50;;;;;;;21.76;36.27;101558.03;4995126;28;20358;-50
2022/01/26 04:06:06;;;;;;;4.05;2.10;;;;;;;21.78;36.16;101565.03;4994737;28;20042;-52
2022/01/26 04:08:34;;;;;;;3.30;1.88;;;;;;;21.73;36.18;101570.13;4993027;28;20352;-49
2022/01/26 04:13:32;;;;;;;3.35;2.30;;;;;;;21.68;36.05;101567.06;4992986;28;20126;-53
2022/01/26 04:15:59;;;;;;;6.65;2.22;;;;;;;21.70;36.19;101576.78;4995639;28;20105;-53
2022/01/26 04:18:32;;;;;;;6.25;2.38;;;;;;;21.69;36.22;101575.06;4992656;28;20369;-52
2022/01/26 04:21:04;;;;;;;2.85;2.08;;;;;;;21.65;36.09;101573.72;4994988;28;20026;-51
2022/01/26 04:26:05;;;;;;;;;;;;;;;21.23;36.95;101596.44;4995810;28;20065;-50
2022/01/26 04:28:39;;;;;;;4.97;2.10;;;;;;;21.58;36.31;101582.75;4993361;28;19921;-50
2022/01/26 04:31:05;;;;;;;4.77;1.97;;;;;;;21.58;36.44;101593.63;4992984;28;20081;-52
2022/01/26 04:33:33;;;;;;;4.63;2.13;;;;;;;21.61;36.27;101593.28;4993356;28;20753;-52
2022/01/26 04:36:01;;;;;;;3.97;1.80;;;;;;;21.59;36.16;101601.63;5007810;28;20043;-54
2022/01/26 04:38:35;;;;;;;4.07;1.90;;;;;;;21.57;36.26;101606.38;4993212;28;20188;-52
2022/01/26 04:43:50;;;;;;;3.45;2.10;;;;;;;21.54;36.25;101613.00;4994897;28;20113;-49
2022/01/26 04:46:16;;;;;;;3.83;1.70;;;;;;;21.51;36.09;101616.06;4995764;28;20034;-51
2022/01/26 04:48:42;;;;;;;4.15;2.20;;;;;;;21.54;36.13;101623.88;4995922;28;20029;-51
2022/01/26 04:51:08;;;;;;;4.82;1.90;;;;;;;21.50;36.13;101613.53;4995893;28;20453;-50
2022/01/26 04:53:34;;;;;;;5.82;2.20;;;;;;;21.50;35.97;101625.25;4996088;28;20034;-51
2022/01/26 04:56:00;;;;;;;3.20;1.92;;;;;;;21.48;36.08;101630.00;4995746;28;20026;-52
2022/01/26 04:58:27;;;;;;;3.58;2.10;;;;;;;21.49;36.17;101633.59;4995061;28;20023;-52
2022/01/26 05:00:53;;;;;;;4.38;1.92;;;;;;;21.44;36.16;101625.91;4994847;28;20503;-51
2022/01/26 05:03:19;;;;;;;3.38;2.00;;;;;;;21.47;36.20;101622.88;4994782;28;20034;-48
2022/01/26 05:05:45;;;;;;;4.68;2.15;;;;;;;21.45;36.11;101621.34;4994666;28;20446;-51
2022/01/26 05:08:11;;;;;;;2.97;2.30;;;;;;;21.46;36.17;101629.34;4995201;28;20026;-50
2022/01/26 05:10:41;;;;;;;4.38;1.90;;;;;;;21.44;36.22;101625.91;4993646;28;20014;-50
2022/01/26 05:13:10;;;;;;;2.70;1.83;;;;;;;21.39;36.19;101618.25;4994231;28;20461;-51
2022/01/26 05:15:36;;;;;;;4.68;2.58;;;;;;;21.41;36.10;101621.66;4995099;28;20026;-50
2022/01/26 05:18:05;;;;;;;3.83;2.00;;;;;;;21.38;36.15;101627.47;4995424;28;20030;-51
2022/01/26 05:20:32;;;;;;;5.00;2.92;;;;;;;21.39;36.13;101631.03;4993978;28;20088;-49
2022/01/26 05:22:58;;;;;;;3.03;2.03;;;;;;;21.36;36.13;101637.66;4995482;28;20507;-49
2022/01/26 05:25:25;;;;;;;3.17;1.90;;;;;;;21.35;36.10;101635.09;4994560;28;20032;-51
2022/01/26 05:27:51;;;;;;;3.05;2.10;;;;;;;21.35;36.04;101644.13;4992372;28;20464;-52
2022/01/26 05:30:17;;;;;;;3.38;2.00;;;;;;;21.35;36.01;101643.28;4995157;28;20034;-49
2022/01/26 05:32:43;;;;;;;4.78;2.38;;;;;;;21.36;36.06;101651.25;4993793;28;20026;-50
2022/01/26 05:35:10;;;;;;;4.82;2.28;;;;;;;21.30;36.24;101648.38;4995690;28;20144;-50
2022/01/26 05:37:36;;;;;;;3.65;2.00;;;;;;;21.30;36.21;101645.66;4994506;28;20049;-51
2022/01/26 05:40:03;;;;;;;4.47;2.25;;;;;;;21.32;36.07;101652.63;4995067;28;20026;-51
2022/01/26 05:42:31;;;;;;;3.92;1.98;;;;;;;21.30;36.05;101646.50;4995128;28;20491;-50
2022/01/26 05:45:03;;;;;;;4.28;2.10;;;;;;;21.29;36.06;101650.22;4991923;28;20034;-53
2022/01/26 05:47:32;;;;;;;3.15;1.80;;;;;;;21.24;36.05;101637.13;4993573;28;20030;-50
2022/01/26 05:49:59;;;;;;;2.80;1.85;;;;;;;21.24;35.92;101639.84;4992411;28;20104;-51
2022/01/26 05:52:25;;;;;;;4.32;2.08;;;;;;;21.20;35.89;101646.63;4994954;28;20073;-51
2022/01/26 05:54:51;;;;;;;3.33;1.80;;;;;;;21.21;35.93;101642.88;4991608;28;20034;-52
2022/01/26 05:57:17;;;;;;;3.85;2.20;;;;;;;21.20;35.96;101652.06;4991949;28;20093;-52
2022/01/26 05:59:43;;;;;;;4.43;2.25;;;;;;;21.21;36.00;101659.22;4989944;28;20026;-52
2022/01/26 06:02:10;;;;;;;3.00;1.85;;;;;;;21.18;36.11;101653.25;4993958;28;20022;-51
2022/01/26 06:04:36;;;;;;;5.43;2.30;;;;;;;21.18;36.10;101664.13;4994382;28;20033;-53
2022/01/26 06:07:02;;;;;;;4.57;2.08;;;;;;;21.19;36.07;101665.84;4990412;28;20456;-52
2022/01/26 06:09:28;;;;;;;4.68;2.00;;;;;;;21.16;35.96;101661.59;4993193;28;20042;-50
2022/01/26 06:11:55;;;;;;;2.40;1.90;;;;;;;21.14;35.98;101666.34;4994099;28;20049;-52
2022/01/26 06:14:21;;;;;;;5.18;2.20;;;;;;;21.14;36.10;101663.63;4994321;28;20037;-51
2022/01/26 06:16:47;;;;;;;4.30;2.00;;;;;;;21.13;36.11;101671.94;4994721;28;20042;-52
2022/01/26 06:19:13;;;;;;;5.60;2.17;;;;;;;21.13;35.92;101667.38;4990405;28;20030;-53
2022/01/26 06:21:39;;;;;;;2.70;1.90;;;;;;;21.10;35.98;101678.56;4993545;28;20034;-53
2022/01/26 06:24:06;;;;;;;3.30;1.98;;;;;;;21.10;36.03;101673.13;4991063;28;20026;-49
2022/01/26 06:26:32;;;;;;;3.72;1.70;;;;;;;21.08;35.99;101675.16;4991286;28;20030;-52
2022/01/26 06:28:58;;;;;;;3.25;2.22;;;;;;;21.07;35.93;101676.19;4993957;28;20062;-51
2022/01/26 06:31:27;;;;;;;3.15;2.00;;;;;;;21.06;35.84;101682.66;4994039;28;20097;-50
2022/01/26 06:33:53;;;;;;;3.80;2.00;;;;;;;21.05;35.81;101686.38;4993452;28;20547;-49
2022/01/26 06:36:19;;;;;;;3.40;2.22;;;;;;;21.03;35.95;101677.53;4994101;28;20026;-50
2022/01/26 06:38:46;;;;;;;2.85;1.83;;;;;;;21.03;35.81;101669.34;4994229;28;20018;-51
2022/01/26 06:41:13;;;;;;;4.78;1.98;;;;;;;21.04;35.88;101676.50;4992632;28;20420;-51
2022/01/26 06:43:50;;;;;;;3.45;2.08;;;;;;;21.01;35.89;101679.56;4992707;28;20126;-52
2022/01/26 06:46:26;;;;;;;3.00;1.70;;;;;;;21.01;35.91;101685.00;4993963;28;20034;-52
2022/01/26 06:49:28;;;;;;;3.85;2.15;;;;;;;20.98;35.90;101686.19;4994178;28;20030;-50
2022/01/26 06:51:44;;;;;;;3.67;2.05;;;;;;;20.92;35.76;101675.97;4993861;28;20338;-51
2022/01/26 06:54:10;;;;;;;4.07;2.25;;;;;;;20.93;35.93;101683.09;4993960;28;20420;-48
2022/01/26 06:56:36;;;;;;;4.50;2.22;;;;;;;20.90;35.87;101683.41;4993781;28;20042;-48
2022/01/26 06:59:02;;;;;;;3.40;1.95;;;;;;;20.92;35.82;101687.69;4992168;28;20092;-51
2022/01/26 07:01:29;;;;;;;3.85;2.30;;;;;;;20.89;35.79;101693.47;4993656;28;20034;-49
2022/01/26 07:03:55;;;;;;;3.30;2.30;;;;;;;20.87;35.92;101692.75;4993052;28;20031;-52
2022/01/26 07:06:21;;;;;;;4.57;2.20;;;;;;;20.87;35.85;101695.47;4993633;28;20030;-49
2022/01/26 07:08:47;;;;;;;2.50;1.83;;;;;;;20.88;35.75;101691.75;4996316;28;20026;-48
2022/01/26 07:11:13;;;;;;;2.90;1.95;;;;;;;20.81;36.08;101684.41;4997557;28;20026;-52
2022/01/26 07:13:40;;;;;;;3.20;2.22;;;;;;;20.86;35.98;101685.63;4994898;28;20022;-50
2022/01/26 07:21:36;;;;;;;2.97;1.80;;;;;;;20.80;35.83;101688.97;4997822;28;20041;-51
2022/01/26 07:24:02;;;;;;;2.67;1.80;;;;;;;20.81;35.89;101696.13;4996450;28;20034;-50
2022/01/26 07:26:30;;;;;;;5.22;2.50;;;;;;;20.80;35.78;101691.69;5012829;28;20063;-50
2022/01/26 07:29:06;;;;;;;5.35;2.30;;;;;;;20.80;35.94;101696.31;5010034;28;20072;-50
2022/01/26 07:31:34;;;;;;;4.30;2.30;;;;;;;20.75;35.83;101688.63;4992919;28;20041;-50
2022/01/26 07:34:00;;;;;;;3.22;1.90;;;;;;;20.76;35.71;101703.94;4996770;28;20092;-52
2022/01/26 07:36:26;;;;;;;5.07;2.03;;;;;;;20.76;35.87;101695.78;4996139;28;20038;-50
2022/01/26 07:38:54;;;;;;;2.00;1.60;;;;;;;20.72;35.71;101694.41;4997073;28;20022;-49
2022/01/26 07:41:20;;;;;;;3.70;1.88;;;;;;;20.74;35.84;101705.94;5010032;28;20030;-52
2022/01/26 07:43:46;;;;;;;3.80;1.83;;;;;;;20.75;35.76;101707.66;4996230;28;20065;-52
2022/01/26 07:46:13;;;;;;;4.28;2.00;;;;;;;20.73;35.73;101706.94;4995318;28;20030;-51
2022/01/26 07:48:39;;;;;;;3.33;1.70;;;;;;;20.74;35.75;101711.38;4997324;28;20445;-50
2022/01/26 07:51:05;;;;;;;4.32;1.92;;;;;;;20.71;35.70;101698.97;4996602;28;20034;-51
2022/01/26 07:53:32;;;;;;;2.35;1.92;;;;;;;20.71;35.78;101703.56;4996883;28;20129;-49
2022/01/26 07:55:59;;;;;;;3.92;1.90;;;;;;;20.69;35.79;101700.09;4996188;28;20057;-52
2022/01/26 07:58:25;;;;;;;4.57;2.20;;;;;;;20.69;35.59;101698.25;4996404;28;20085;-49
2022/01/26 08:00:51;;;;;;;3.55;1.95;;;;;;;20.67;35.65;101699.41;4996833;28;20124;-52
2022/01/26 08:03:18;;;;;;;2.60;1.90;;;;;;;20.66;35.62;101703.16;4995230;28;20037;-49
2022/01/26 08:05:44;;;;;;;3.75;1.98;;;;;;;20.63;35.63;101703.47;4996845;28;20022;-48
2022/01/26 08:08:11;;;;;;;2.33;1.70;;;;;;;20.63;35.63;101698.91;4995231;28;20053;-52
2022/01/26 08:10:37;;;;;;;3.92;2.20;;;;;;;20.56;35.63;101690.50;4994118;28;20022;-49
2022/01/26 08:13:03;;;;;;;2.50;1.63;;;;;;;20.64;35.63;101706.03;5011267;28;20038;-49
2022/01/26 08:15:30;;;;;;;3.17;1.95;;;;;;;20.63;35.70;101698.03;4996595;28;20026;-49
2022/01/26 08:17:58;;;;;;;2.00;1.58;;;;;;;20.57;35.70;101689.50;4995399;28;20467;-49
2022/01/26 08:20:25;;;;;;;2.60;1.63;;;;;;;20.58;35.70;101696.66;4993176;28;20364;-50
2022/01/26 08:22:56;;;;;;;2.67;1.67;;;;;;;20.55;35.66;101690.69;4996268;28;20357;-52
2022/01/26 08:25:22;;;;;;;2.42;1.73;;;;;;;20.55;35.71;101691.53;4994481;28;20041;-53
2022/01/26 08:27:55;;;;;;;3.00;1.70;;;;;;;20.55;35.61;101699.69;4992292;28;20018;-52
2022/01/26 08:30:21;;;;;;;2.95;1.83;;;;;;;20.51;35.60;101695.59;4994595;28;20113;-48
2022/01/26 08:32:48;;;;;;;2.55;1.88;;;;;;;20.52;35.69;101694.56;4996189;28;20092;-47
2022/01/26 08:35:14;;;;;;;1.70;1.58;;;;;;;20.52;35.82;101694.56;4995872;28;20030;-50
2022/01/26 08:37:40;;;;;;;3.67;1.67;;;;;;;20.48;35.69;101690.47;4995480;28;20031;-53
2022/01/26 08:40:07;;;;;;;4.95;1.83;;;;;;;20.48;35.71;101695.03;4996017;28;20026;-50
2022/01/26 08:42:33;;;;;;;2.65;1.50;;;;;;;20.48;35.63;101709.50;4995798;28;20030;-52
2022/01/26 08:44:59;;;;;;;2.90;1.70;;;;;;;20.46;35.69;101724.28;4993627;28;20042;-48
2022/01/26 08:47:25;;;;;;;3.92;1.42;;;;;;;20.46;35.54;101722.41;4993319;28;20432;-49
2022/01/26 08:49:51;;;;;;;3.50;1.85;;;;;;;20.44;35.60;101716.25;4994082;28;20034;-52
2022/01/26 08:52:18;;;;;;;3.00;1.92;;;;;;;20.44;35.62;101718.97;4995592;28;20026;-52
2022/01/26 08:54:44;;;;;;;3.40;1.90;;;;;;;20.42;35.63;101719.13;5010716;28;20054;-53
2022/01/26 08:57:10;;;;;;;3.30;1.90;;;;;;;20.43;35.60;101720.84;4995497;28;20085;-49
2022/01/26 08:59:36;;;;;;;3.05;1.98;;;;;;;20.42;35.50;101729.16;5008750;28;20117;-50
2022/01/26 09:02:02;;;;;;;5.57;2.05;;;;;;;20.42;35.61;101721.00;4995715;28;20030;-52
2022/01/26 09:04:28;;;;;;;3.03;1.80;;;;;;;20.39;35.40;101729.47;4995134;28;20365;-49
2022/01/26 09:06:57;;;;;;;3.92;2.25;;;;;;;20.36;35.60;101717.06;5010480;28;20026;-49
2022/01/26 09:09:26;;;;;;;4.13;2.13;;;;;;;20.37;35.59;101731.50;4995230;28;20077;-50
2022/01/26 09:11:54;;;;;;;3.33;1.83;;;;;;;20.34;35.45;101727.25;4994446;28;20030;-51
2022/01/26 09:14:23;;;;;;;3.95;2.08;;;;;;;20.32;35.37;101729.25;4994905;28;20400;-51
2022/01/26 09:16:52;;;;;;;5.10;2.17;;;;;;;20.30;35.38;101725.00;4994396;28;20037;-52
2022/01/26 09:19:30;;;;;;;4.25;2.28;;;;;;;20.32;35.51;101731.13;4995162;28;20333;-52
2022/01/26 09:22:04;;;;;;;2.72;1.88;;;;;;;20.26;35.51;101735.31;4994996;28;20453;-48
2022/01/26 09:24:31;;;;;;;2.75;1.80;;;;;;;20.25;35.28;101742.63;4994219;28;20034;-49
2022/01/26 09:26:58;;;;;;;2.70;2.00;;;;;;;20.25;35.61;101734.50;4994758;28;20037;-48
2022/01/26 09:29:25;;;;;;;3.22;1.88;;;;;;;20.24;35.52;101735.50;4994006;28;20057;-49
2022/01/26 09:31:51;;;;;;;2.60;1.77;;;;;;;20.22;35.53;101737.50;5009294;28;20102;-52
2022/01/26 09:34:18;;;;;;;2.85;1.80;;;;;;;20.23;35.47;101741.94;4994343;28;20030;-50
2022/01/26 09:36:44;;;;;;;3.67;2.30;;;;;;;20.23;35.43;101741.94;4994764;28;20030;-51
2022/01/26 09:39:19;;;;;;;4.10;1.67;;;;;;;20.22;35.48;101740.22;4994669;28;20057;-51
2022/01/26 09:41:46;;;;;;;3.13;1.80;;;;;;;20.18;35.45;101738.84;4994991;28;20026;-48
2022/01/26 09:44:12;;;;;;;3.13;1.77;;;;;;;20.20;35.35;101749.53;4993495;28;20042;-52
2022/01/26 09:46:39;;;;;;;3.92;2.10;;;;;;;20.18;35.47;101749.72;4993946;28;20460;-53
2022/01/26 09:49:06;;;;;;;4.25;2.28;;;;;;;20.18;35.60;101748.84;4994068;28;20030;-48
2022/01/26 09:51:39;;;;;;;3.85;1.85;;;;;;;20.14;35.46;101740.16;4993078;28;20465;-49
2022/01/26 09:54:11;;;;;;;2.20;1.80;;;;;;;20.13;35.41;101746.59;4992890;28;20061;-51
2022/01/26 09:56:37;;;;;;;4.50;2.40;;;;;;;20.15;35.58;101749.16;4994047;28;20165;-49
2022/01/26 09:59:04;;;;;;;3.58;1.67;;;;;;;20.10;35.33;101742.34;4992531;28;20037;-52
2022/01/26 10:01:40;;;;;;;4.25;2.08;;;;;;;20.15;35.29;101755.44;4993669;28;20421;-48
2022/01/26 10:04:06;;;;;;;2.58;1.45;;;;;;;20.11;35.65;101748.63;4994139;28;20030;-50
2022/01/26 10:06:34;;;;;;;3.10;1.92;;;;;;;20.11;35.54;101754.03;5009494;28;20053;-48
2022/01/26 10:09:25;;;;;;;3.13;1.90;;;;;;;20.11;35.64;101749.50;4994340;28;20030;-51
2022/01/26 10:17:26;;;;;;;2.22;1.88;;;;;;;20.00;35.42;101765.16;4994183;28;20125;-51
2022/01/26 10:20:00;;;;;;;3.97;2.03;;;;;;;20.05;35.36;101766.41;5009130;28;20038;-51
2022/01/26 10:22:28;;;;;;;2.67;1.80;;;;;;;20.02;35.25;101758.56;5008731;28;20030;-52
2022/01/26 10:25:11;;;;;;;2.03;1.83;;;;;;;20.01;35.55;101767.69;4993697;28;20032;-50
2022/01/26 10:27:40;;;;;;;2.80;2.08;;;;;;;20.00;35.39;101762.44;5008945;28;20022;-52
2022/01/26 10:30:08;;;;;;;3.60;1.80;;;;;;;20.00;35.45;101763.28;4993006;28;20041;-50
2022/01/26 10:32:35;;;;;;;1.75;1.35;;;;;;;19.98;35.20;101765.31;4993100;28;20026;-51
2022/01/26 10:35:02;;;;;;;2.60;1.63;;;;;;;19.97;35.39;101760.03;4993187;28;20034;-51
2022/01/26 10:37:29;;;;;;;4.03;2.10;;;;;;;20.02;35.43;101769.41;4993675;28;20037;-52
2022/01/26 10:40:17;;;;;;;3.05;1.60;;;;;;;20.01;35.30;101769.59;4993476;28;20038;-52
2022/01/26 10:43:08;;;;;;;3.45;1.90;;;;;;;19.89;35.39;101763.50;4993082;28;20168;-50
2022/01/26 10:45:50;;;;;;;3.70;2.25;;;;;;;20.02;35.24;101763.16;4990642;28;20413;-51
2022/01/26 10:48:25;;;;;;;2.70;2.13;;;;;;;20.02;35.16;101768.56;4993655;28;20117;-50
2022/01/26 10:53:42;;;;;;;3.75;2.00;;;;;;;20.01;35.01;101769.59;4993755;28;20037;-49
2022/01/26 10:56:08;;;;;;;3.38;1.70;;;;;;;20.00;35.19;101765.16;4993406;28;20026;-48
2022/01/26 10:58:35;;;;;;;4.07;2.22;;;;;;;19.98;35.37;101761.72;4993922;28;20440;-51
2022/01/26 11:01:01;;;;;;;4.55;2.00;;;;;;;20.01;35.20;101769.59;4993045;28;20353;-48
2022/01/26 11:03:28;;;;;;;4.65;2.25;;;;;;;19.99;35.21;101767.03;4993074;28;20405;-51
2022/01/26 11:05:54;;;;;;;4.72;1.92;;;;;;;20.01;35.29;101775.00;5008715;28;20053;-51
2022/01/26 11:08:21;;;;;;;3.55;2.00;;;;;;;19.97;35.16;101762.75;4993666;28;20033;-52
2022/01/26 11:10:47;;;;;;;2.10;1.88;;;;;;;19.99;35.38;101777.03;4992603;28;20076;-49
2022/01/26 11:13:37;;;;;;;4.25;2.30;;;;;;;19.82;35.27;101787.69;4993275;28;20034;-49
2022/01/26 11:16:09;;;;;;;3.65;1.88;;;;;;;19.95;35.33;101790.06;4992402;28;20380;-50
2022/01/26 11:18:52;;;;;;;3.05;1.65;;;;;;;19.86;35.33;101783.69;4991250;28;20045;-50
2022/01/26 11:21:33;;;;;;;2.58;1.90;;;;;;;19.82;35.29;101775.97;5008795;28;20045;-48
2022/01/26 11:24:23;;;;;;;5.60;2.35;;;;;;;19.74;35.50;101779.44;4993969;28;20038;-48
2022/01/26 11:27:02;;;;;;;4.30;2.00;;;;;;;19.87;35.69;101777.25;4993018;28;20042;-49
2022/01/26 11:29:33;;;;;;;2.95;2.10;;;;;;;19.84;35.39;101774.84;4993156;28;20034;-48
2022/01/26 11:32:19;;;;;;;3.10;1.90;;;;;;;19.78;35.47;101772.72;4992212;28;20105;-50
2022/01/26 11:34:48;;;;;;;4.07;2.10;;;;;;;19.86;35.36;101775.53;4992988;28;20345;-49
2022/01/26 11:37:16;;;;;;;5.18;1.80;;;;;;;19.81;35.67;101764.25;4992241;28;20133;-50
2022/01/26 11:45:16;;;;;;;8.07;2.70;;;;;;;19.69;35.62;101766.34;4993148;28;20117;-47
2022/01/26 11:48:01;;;;;;;3.17;2.08;;;;;;;19.72;35.77;101776.03;4993347;28;20032;-48
2022/01/26 11:50:28;;;;;;;4.13;2.42;;;;;;;19.79;35.60;101771.72;4993736;28;20372;-48
2022/01/26 11:53:15;;;;;;;4.53;2.22;;;;;;;19.68;35.83;101761.91;4992635;28;20036;-49
2022/01/26 11:55:49;;;;;;;6.38;2.40;;;;;;;19.76;35.51;101759.28;4996580;28;20041;-50
2022/01/26 11:58:29;;;;;;;6.40;2.75;;;;;;;19.74;35.61;101760.44;4996121;28;20034;-48
2022/01/26 12:03:46;;;;;;;7.47;3.30;;;;;;;19.80;35.84;101767.97;4996617;28;20474;-49
2022/01/26 12:06:19;;;;;;;4.28;2.17;;;;;;;19.77;35.94;101762.84;5010507;28;20419;-50
2022/01/26 12:08:45;;;;;;;6.68;2.70;;;;;;;19.81;35.83;101764.25;4996187;28;20202;-47
2022/01/26 12:11:13;;;;;;;6.72;2.83;;;;;;;19.77;35.96;101757.41;4996399;28;20084;-49
2022/01/26 12:13:40;;;;;;;6.50;3.00;;;;;;;19.76;35.79;101758.44;4996847;28;20038;-51
2022/01/26 12:16:15;;;;;;;5.65;2.92;;;;;;;19.79;35.61;101763.56;4993811;28;20113;-51
2022/01/26 12:35:30;;;;;;;6.55;3.22;;;;;;;19.75;36.29;101773.00;4995983;28;20034;-48
2022/01/26 12:38:02;;;;;;;6.05;3.25;;;;;;;19.74;36.23;101774.00;4995536;28;20153;-49
2022/01/26 12:43:31;;;;;;;8.55;4.32;;;;;;;19.67;36.30;101764.78;4995539;28;20045;-52
2022/01/26 12:45:57;;;;;;;11.02;4.95;;;;;;;19.69;36.34;101752.75;4993567;28;20022;-50
2022/01/26 12:48:23;;;;;;;14.85;4.60;;;;;;;19.70;36.38;101767.19;4996151;28;20124;-49
2022/01/26 12:50:50;;;;;;;8.90;4.10;;;;;;;19.75;36.35;101768.44;4992125;28;20455;-51
2022/01/26 12:53:25;;;;;;;8.63;4.18;;;;;;;19.71;36.35;101769.72;4993876;28;20507;-49
2022/01/26 12:55:58;;;;;;;;;;;;;;;19.34;37.12;101775.22;4995317;28;20342;-49
2022/01/26 12:58:25;;;;;;;8.30;3.95;;;;;;;19.68;36.46;101769.22;4994305;28;19925;-50
2022/01/26 13:00:52;;;;;;;8.80;4.22;;;;;;;19.73;36.23;101766.88;4992986;28;20018;-50
2022/01/26 13:03:19;;;;;;;9.88;4.13;;;;;;;19.76;36.44;101772.00;4996013;28;20472;-53
2022/01/26 13:05:46;;;;;;;7.88;4.25;;;;;;;19.70;36.54;101776.19;4995301;28;20030;-49
2022/01/26 13:08:12;;;;;;;9.38;4.22;;;;;;;19.67;36.64;101775.66;4992303;28;20456;-51
2022/01/26 13:10:39;;;;;;;9.95;5.15;;;;;;;19.72;36.67;101786.91;4992745;28;20518;-49
2022/01/26 13:13:12;;;;;;;8.60;4.72;;;;;;;19.69;36.74;101785.34;4995382;28;20112;-50
2022/01/26 13:15:51;;;;;;;10.43;4.65;;;;;;;19.69;36.67;101785.34;4992909;28;20496;-50
2022/01/26 13:18:27;;;;;;;11.10;4.93;;;;;;;19.72;36.68;101785.03;4995057;28;20125;-52
2022/01/26 13:21:42;;;;;;;8.63;4.97;;;;;;;19.66;36.76;101782.06;4994842;28;20018;-51
2022/01/26 13:23:53;;;;;;;9.98;5.13;;;;;;;19.70;36.92;101783.47;4988522;28;20034;-51
2022/01/26 13:26:31;;;;;;;11.05;5.28;;;;;;;19.70;36.80;101778.03;4990784;28;20026;-48
2022/01/26 13:29:19;;;;;;;10.30;5.22;;;;;;;19.67;36.88;101778.38;4994292;28;20024;-52
2022/01/26 13:32:37;;;;;;;7.57;4.55;;;;;;;19.55;36.84;101786.72;4993154;28;20022;-49
2022/01/26 13:40:22;;;;;;;;;;;;;;;19.30;37.68;101791.00;4995821;28;20027;-50
2022/01/26 13:43:25;;;;;;;8.93;4.63;;;;;;;19.57;37.11;101778.41;5007893;28;19921;-49
2022/01/26 13:46:10;;;;;;;8.45;4.22;;;;;;;19.62;37.05;101789.66;4994886;28;20453;-51
2022/01/26 13:48:56;;;;;;;8.75;5.35;;;;;;;19.67;37.11;101790.06;4994585;28;20030;-48
2022/01/26 13:51:34;;;;;;;7.70;5.00;;;;;;;19.66;37.16;101792.94;4994543;28;20026;-52
2022/01/26 13:59:24;;;;;;;10.10;5.05;;;;;;;19.57;37.60;101806.41;4994231;28;20022;-51